Change the Weather History Date:

Thursday, December 5, 2013

  Actual Average (KLBX) Record (KLBX)
Temperature  
Mean Temperature 60 °F -  
Max Temperature 78 °F 64 °F 81 °F (2001)
Min Temperature 40 °F 47 °F 28 °F (2006)
Degree Days  
Heating Degree Days 6    
Growing Degree Days 10 (Base 50)    
Moisture  
Dew Point 59 °F    
Average Humidity 93    
Maximum Humidity 99    
Minimum Humidity 81    
Precipitation  
Precipitation 0.01 in - - ()
Sea Level Pressure  
Sea Level Pressure 29.90 in    
Wind  
Wind Speed 8 mph (NNE)    
Max Wind Speed 22 mph    
Max Gust Speed 29 mph    
Visibility 3 miles    
Events Fog , Rain    
Averages and records for this station are not official NWS values.
T = Trace of Precipitation, MM = Missing Value Source: NWS Daily Summary

Daily Weather History Graph

Daily Weather History Graph

Search for Another Location

Airport or City:

Trip Planner

Search our weather history database for the weather conditions in past years. The results will help you decide how hot, cold, wet, or windy it might be!

Date:

Astronomy

Dec. 05, 2013 Rise Set
Actual Time 7:02 AM CST 5:25 PM CST
Civil Twilight 6:36 AM CST 5:51 PM CST
Nautical Twilight 6:07 AM CST 6:20 PM CST
Astronomical Twilight 5:38 AM CST 6:49 PM CST
Moon 9:29 AM CST (12/5) 8:39 PM CST (12/5)
Length of Visible Light 11h 14m
Length of Day
10h 22m
Waxing Crescent, 11% of the Moon is Illuminated
Dec 5
Waxing Crescent
Dec 9
First Quarter
Dec 17
Full
Dec 25
Last Quarter
Jan 1
New

Hourly Weather History & Observations

Time (CST) Temp. Windchill Dew Point Humidity Pressure Visibility Wind Dir Wind Speed Gust Speed Precip Events Conditions
12:15 AM 72.7 °F - 72.0 °F 98% 29.83 in 1.2 mi South 4.6 mph - N/A   Overcast
12:35 AM 72.7 °F - 72.0 °F 98% 29.83 in 1.8 mi South 5.8 mph - N/A   Overcast
12:55 AM 72.7 °F - 72.0 °F 98% 29.83 in 2.0 mi South 3.5 mph - N/A   Overcast
1:15 AM 72.9 °F - 72.1 °F 98% 29.83 in 0.8 mi South 3.5 mph - N/A   Overcast
1:35 AM 72.7 °F - 72.0 °F 98% 29.82 in 0.5 mi SSE 5.8 mph - N/A Fog Fog
1:55 AM 72.7 °F - 72.0 °F 98% 29.81 in 0.5 mi SSE 6.9 mph - N/A Fog Fog
2:15 AM 72.7 °F - 72.1 °F 98% 29.81 in 0.2 mi SSE 8.1 mph - N/A Fog Fog
2:35 AM 72.5 °F - 72.0 °F 98% 29.81 in 0.2 mi SSE 5.8 mph - N/A Fog Fog
2:55 AM 72.7 °F - 72.1 °F 98% 29.82 in 0.2 mi South 4.6 mph - N/A Fog Fog
3:15 AM 72.9 °F - 72.1 °F 98% 29.82 in 0.2 mi SSE 3.5 mph - N/A Fog Fog
3:35 AM 72.9 °F - 72.3 °F 98% 29.82 in 0.2 mi South 3.5 mph - N/A Fog Fog
3:55 AM 72.9 °F - 72.5 °F 99% 29.82 in 0.2 mi South 4.6 mph - N/A Fog Fog
4:15 AM 73.0 °F - 72.5 °F 98% 29.82 in 0.8 mi SSE 5.8 mph - N/A   Overcast
4:35 AM 72.7 °F - 72.1 °F 98% 29.81 in 0.5 mi SSE 3.5 mph - N/A Fog Fog
4:55 AM 72.7 °F - 72.1 °F 98% 29.82 in 0.2 mi SSE 3.5 mph - N/A Fog Fog
5:15 AM 72.9 °F - 72.3 °F 98% 29.82 in 0.5 mi SSE 3.5 mph - N/A Fog Fog
5:35 AM 72.9 °F - 72.5 °F 99% 29.83 in 0.5 mi SE 3.5 mph - N/A Fog Fog
5:55 AM 73.2 °F - 72.5 °F 98% 29.83 in 1.5 mi SSE 5.8 mph - N/A   Overcast
6:15 AM 73.2 °F - 72.5 °F 98% 29.84 in 1.8 mi SSE 4.6 mph - N/A   Overcast
6:35 AM 72.7 °F - 72.1 °F 98% 29.84 in 1.5 mi SSE 5.8 mph - N/A   Overcast
6:55 AM 72.9 °F - 72.3 °F 98% 29.85 in 1.5 mi SSE 4.6 mph - N/A   Overcast
7:15 AM 72.9 °F - 72.5 °F 99% 29.86 in 1.2 mi SSE 4.6 mph - N/A   Overcast
7:35 AM 73.4 °F - 72.9 °F 98% 29.87 in 0.8 mi SSE 3.5 mph - N/A   Overcast
7:55 AM 73.8 °F - 73.2 °F 98% 29.88 in 1.2 mi SE 3.5 mph - N/A   Overcast
8:15 AM 74.1 °F - 73.6 °F 98% 29.88 in 1.5 mi SSE 3.5 mph - N/A   Overcast
8:35 AM 74.7 °F - 74.1 °F 98% 29.88 in 1.8 mi SE 4.6 mph - N/A   Overcast
8:55 AM 75.4 °F - 74.7 °F 98% 29.88 in 2.5 mi SE 5.8 mph - N/A   Overcast
9:15 AM 76.1 °F - 75.4 °F 98% 29.90 in 3.0 mi SE 4.6 mph - N/A   Overcast
9:35 AM 76.1 °F - 75.2 °F 97% 29.92 in 3.0 mi Calm Calm - N/A   Overcast
9:55 AM 76.6 °F - 75.4 °F 96% 29.92 in 4.0 mi SE 3.5 mph - N/A   Overcast
10:15 AM 77.4 °F - 75.7 °F 95% 29.91 in 4.0 mi SE 5.8 mph - N/A   Overcast
10:35 AM 78.6 °F - 75.9 °F 91% 29.91 in 5.0 mi SSE 9.2 mph - N/A   Overcast
10:55 AM 78.8 °F - 75.4 °F 89% 29.90 in 5.0 mi South 5.8 mph - N/A Rain Light Rain
11:15 AM 66.2 °F - 62.6 °F 88% 29.92 in 4.0 mi WNW 15.0 mph 18.4 mph N/A   Overcast
11:35 AM 63.7 °F - 61.7 °F 93% 29.93 in 3.0 mi NW 15.0 mph 20.7 mph N/A   Light Drizzle
11:55 AM 61.3 °F - 59.4 °F 93% 29.93 in 5.0 mi NNW 12.7 mph 17.3 mph N/A   Overcast
12:15 PM 60.3 °F - 57.7 °F 91% 29.92 in 4.0 mi North 11.5 mph - N/A   Overcast
12:35 PM 59.9 °F - 57.0 °F 90% 29.91 in 4.0 mi NNW 10.4 mph - N/A   Overcast
12:55 PM 60.1 °F - 56.5 °F 88% 29.90 in 5.0 mi North 11.5 mph - N/A   Overcast
1:15 PM 59.4 °F - 54.9 °F 85% 29.89 in 7.0 mi North 13.8 mph - N/A   Overcast
1:35 PM 58.5 °F - 53.1 °F 82% 29.89 in 5.0 mi North 17.3 mph - N/A   Haze
1:55 PM 57.7 °F - 52.0 °F 81% 29.88 in 7.0 mi North 15.0 mph - N/A   Overcast
2:15 PM 57.4 °F - 51.6 °F 81% 29.88 in 7.0 mi NNW 11.5 mph - N/A   Overcast
2:35 PM 57.0 °F - 51.1 °F 81% 29.88 in 5.0 mi NNW 12.7 mph 18.4 mph N/A   Haze
2:55 PM 55.9 °F - 50.4 °F 82% 29.88 in 5.0 mi NNW 11.5 mph 17.3 mph N/A   Haze
3:15 PM 55.4 °F - 49.6 °F 81% 29.88 in 5.0 mi NNW 12.7 mph 17.3 mph N/A   Haze
3:35 PM 54.5 °F - 49.1 °F 82% 29.88 in 5.0 mi North 16.1 mph - N/A   Drizzle
3:55 PM 51.8 °F - 48.6 °F 89% 29.90 in 3.0 mi North 11.5 mph 20.7 mph 0.01 in Rain Light Rain
4:15 PM 50.5 °F - 47.8 °F 90% 29.90 in 4.0 mi North 17.3 mph 21.9 mph N/A   Overcast
4:35 PM 49.8 °F - 47.3 °F 91% 29.91 in 4.0 mi North 17.3 mph 23.0 mph N/A   Overcast
4:55 PM 48.9 °F - 46.4 °F 91% 29.92 in 4.0 mi North 19.6 mph 27.6 mph N/A   Overcast
5:15 PM 48.4 °F - 45.9 °F 91% 29.93 in 5.0 mi North 16.1 mph 21.9 mph N/A   Overcast
5:35 PM 47.7 °F - 45.1 °F 91% 29.93 in 5.0 mi North 13.8 mph 24.2 mph N/A   Overcast
5:55 PM 46.8 °F - 44.6 °F 92% 29.94 in 5.0 mi North 21.9 mph 28.8 mph N/A   Overcast
6:15 PM 46.2 °F 39.3 °F 43.9 °F 92% 29.94 in 5.0 mi North 17.3 mph 23.0 mph N/A   Overcast
6:35 PM 45.7 °F 38.3 °F 43.3 °F 92% 29.95 in 5.0 mi North 18.4 mph 24.2 mph N/A   Overcast
6:55 PM 45.3 °F 38.4 °F 43.0 °F 92% 29.95 in 5.0 mi NNW 16.1 mph 20.7 mph N/A   Overcast
7:15 PM 44.6 °F 37.2 °F 42.4 °F 92% 29.96 in 5.0 mi North 17.3 mph 25.3 mph N/A   Overcast
7:35 PM 44.2 °F 36.2 °F 42.1 °F 92% 29.96 in 7.0 mi North 19.6 mph 24.2 mph N/A   Overcast
7:55 PM 44.1 °F 36.5 °F 41.9 °F 92% 29.97 in 7.0 mi North 17.3 mph 21.9 mph N/A   Overcast
8:15 PM 43.5 °F 35.8 °F 41.4 °F 92% 29.98 in 7.0 mi North 17.3 mph 28.8 mph N/A   Overcast
8:35 PM 43.0 °F 34.8 °F 41.0 °F 93% 29.98 in 4.0 mi North 18.4 mph 27.6 mph N/A   Overcast
8:55 PM 42.6 °F 34.0 °F 41.0 °F 94% 29.99 in 5.0 mi North 19.6 mph - N/A   Overcast
9:15 PM 42.3 °F 34.4 °F 40.8 °F 95% 29.99 in 5.0 mi North 16.1 mph 23.0 mph N/A   Overcast
9:35 PM 42.1 °F 35.2 °F 40.5 °F 94% 29.99 in 5.0 mi NNW 12.7 mph 18.4 mph N/A   Overcast
9:55 PM 41.7 °F 34.4 °F 39.9 °F 93% 29.98 in 7.0 mi North 13.8 mph 21.9 mph N/A   Overcast
10:15 PM 41.5 °F 34.2 °F 39.7 °F 93% 29.99 in 7.0 mi North 13.8 mph 19.6 mph N/A   Overcast
10:35 PM 41.5 °F 33.5 °F 39.7 °F 93% 30.00 in 5.0 mi North 16.1 mph - N/A   Overcast
10:55 PM 41.4 °F 32.7 °F 39.7 °F 94% 30.00 in 5.0 mi North 18.4 mph 26.5 mph N/A   Overcast
11:15 PM 41.0 °F 32.2 °F 39.6 °F 95% 30.00 in 4.0 mi North 18.4 mph 25.3 mph N/A   Overcast
11:35 PM 41.0 °F 34.3 °F 39.7 °F 95% 30.00 in 4.0 mi North 11.5 mph 19.6 mph N/A   Overcast
11:55 PM 40.8 °F 32.9 °F 39.7 °F 96% 30.00 in 4.0 mi North 15.0 mph 21.9 mph N/A   Overcast